createdAt,value
2022-12-05T00:01:51.426Z,2.52
2022-12-05T00:04:19.875Z,2.50
2022-12-05T00:06:47.964Z,2.51
2022-12-05T00:09:15.901Z,2.51
2022-12-05T00:11:45.789Z,2.52
2022-12-05T00:14:14.707Z,2.52
2022-12-05T00:16:43.974Z,2.52
2022-12-05T00:19:15.502Z,2.55
2022-12-05T00:21:44.287Z,2.52
2022-12-05T00:24:15.356Z,2.52
2022-12-05T00:26:43.678Z,2.55
2022-12-05T00:29:11.701Z,2.54
2022-12-05T00:31:39.906Z,2.52
2022-12-05T00:34:08.010Z,2.55
2022-12-05T00:36:37.938Z,2.54
2022-12-05T00:39:08.643Z,2.54
2022-12-05T00:41:36.851Z,2.55
2022-12-05T00:44:06.145Z,2.55
2022-12-05T00:46:34.845Z,2.58
2022-12-05T00:49:04.563Z,2.58
2022-12-05T00:51:34.186Z,2.57
2022-12-05T00:54:05.622Z,2.57
2022-12-05T00:56:33.887Z,2.54
2022-12-05T00:59:02.954Z,2.54
2022-12-05T01:01:33.503Z,2.58
2022-12-05T01:04:03.126Z,2.58
2022-12-05T01:06:31.679Z,2.57
2022-12-05T01:09:00.147Z,2.57
2022-12-05T01:11:29.668Z,2.60
2022-12-05T01:13:58.062Z,2.57
2022-12-05T01:16:28.217Z,2.60
2022-12-05T01:18:56.564Z,2.60
2022-12-05T01:21:24.774Z,2.58
2022-12-05T01:23:52.782Z,2.60
2022-12-05T01:26:22.671Z,2.58
2022-12-05T01:28:52.533Z,2.61
2022-12-05T01:31:24.029Z,2.61
2022-12-05T01:33:53.461Z,2.61
2022-12-05T01:36:21.917Z,2.61
2022-12-05T01:38:50.037Z,2.60
2022-12-05T01:41:20.144Z,2.61
2022-12-05T01:43:57.311Z,2.58
2022-12-05T01:46:25.965Z,2.60
2022-12-05T01:48:57.656Z,2.62
2022-12-05T01:51:26.054Z,2.62
2022-12-05T01:53:54.075Z,2.62
2022-12-05T01:56:22.221Z,2.61
2022-12-05T01:58:50.353Z,2.64
2022-12-05T02:01:20.172Z,2.65
2022-12-05T02:03:50.254Z,2.66
2022-12-05T02:06:18.719Z,2.66
2022-12-05T02:08:48.120Z,2.64
2022-12-05T02:11:16.276Z,2.65
2022-12-05T02:14:02.890Z,2.64
2022-12-05T02:16:41.358Z,2.66
2022-12-05T02:19:25.481Z,2.66
2022-12-05T02:22:20.239Z,2.66
2022-12-05T02:24:55.439Z,2.66
2022-12-05T02:27:37.970Z,2.65
2022-12-05T02:30:09.965Z,2.65
2022-12-05T02:32:57.070Z,2.66
2022-12-05T02:35:34.993Z,2.64
2022-12-05T02:38:12.967Z,2.64
2022-12-05T02:40:45.759Z,2.68
2022-12-05T02:43:17.509Z,2.65
2022-12-05T02:45:49.673Z,2.65
2022-12-05T02:48:19.139Z,2.65
2022-12-05T02:50:48.733Z,2.66
2022-12-05T02:53:17.815Z,2.64
2022-12-05T02:55:46.453Z,2.71
2022-12-05T02:58:18.381Z,2.66
2022-12-05T03:00:49.597Z,2.66
2022-12-05T03:03:20.225Z,2.68
2022-12-05T03:05:52.680Z,2.65
2022-12-05T03:08:23.386Z,2.68
2022-12-05T03:10:52.787Z,2.64
2022-12-05T03:13:25.894Z,2.66
2022-12-05T03:15:58.619Z,2.64
2022-12-05T03:18:29.467Z,2.68
2022-12-05T03:21:01.058Z,2.66
2022-12-05T03:23:32.248Z,2.71
2022-12-05T03:26:11.878Z,2.68
2022-12-05T03:28:48.334Z,2.66
2022-12-05T03:31:23.090Z,2.68
2022-12-05T03:33:52.087Z,2.71
2022-12-05T03:36:24.370Z,2.71
2022-12-05T03:38:53.477Z,2.71
2022-12-05T03:41:24.580Z,2.68
2022-12-05T03:43:56.043Z,2.70
2022-12-05T03:46:28.828Z,2.70
2022-12-05T03:48:59.947Z,2.71
2022-12-05T03:51:34.442Z,2.70
2022-12-05T03:54:05.571Z,2.72
2022-12-05T03:56:38.229Z,2.71
2022-12-05T03:59:13.184Z,2.72
2022-12-05T04:01:43.786Z,2.72
2022-12-05T04:04:15.357Z,2.71
2022-12-05T04:06:45.045Z,2.74
2022-12-05T04:09:17.523Z,2.74
2022-12-05T04:11:49.665Z,2.72
2022-12-05T04:14:20.332Z,2.75
2022-12-05T04:17:06.294Z,2.74
2022-12-05T04:19:57.515Z,2.75
2022-12-05T04:22:26.612Z,2.78
2022-12-05T04:25:13.480Z,2.77
2022-12-05T04:27:44.865Z,2.77
2022-12-05T04:30:16.022Z,2.77
2022-12-05T04:32:47.675Z,2.77
2022-12-05T04:35:19.098Z,2.77
2022-12-05T04:37:50.469Z,2.78
2022-12-05T04:40:21.442Z,2.77
2022-12-05T04:42:51.978Z,2.77
2022-12-05T04:45:21.273Z,2.77
2022-12-05T04:47:53.331Z,2.80
2022-12-05T04:50:22.568Z,2.80
2022-12-05T04:52:54.105Z,2.77
2022-12-05T04:55:26.112Z,2.78
2022-12-05T04:58:00.713Z,2.78
2022-12-05T05:00:30.362Z,2.81
2022-12-05T05:03:05.721Z,2.81
2022-12-05T05:05:35.896Z,2.82
2022-12-05T05:08:04.373Z,2.81
2022-12-05T05:10:35.043Z,2.82
2022-12-05T05:13:03.032Z,2.81
2022-12-05T05:15:30.963Z,2.82
2022-12-05T05:18:00.238Z,2.81
2022-12-05T05:20:28.191Z,2.81
2022-12-05T05:22:57.284Z,2.82
2022-12-05T05:25:26.061Z,2.84
2022-12-05T05:27:55.855Z,2.87
2022-12-05T05:30:25.077Z,2.85
2022-12-05T05:32:53.382Z,2.85
2022-12-05T05:35:22.775Z,2.85
2022-12-05T05:37:50.753Z,2.85
2022-12-05T05:40:19.045Z,2.87
2022-12-05T05:42:48.963Z,2.85
2022-12-05T05:45:17.454Z,2.84
2022-12-05T05:47:45.478Z,2.84
2022-12-05T05:50:19.530Z,2.87
2022-12-05T05:52:50.678Z,2.87
2022-12-05T05:55:18.844Z,2.87
2022-12-05T05:57:47.015Z,2.85
2022-12-05T06:00:16.331Z,2.88
2022-12-05T06:02:44.435Z,3.24
2022-12-05T06:05:12.455Z,3.53
2022-12-05T06:07:40.515Z,3.63
2022-12-05T06:10:10.765Z,3.61
2022-12-05T06:12:38.966Z,3.68
2022-12-05T06:15:08.659Z,3.73
2022-12-05T06:17:36.659Z,3.70
2022-12-05T06:20:05.182Z,3.64
2022-12-05T06:22:33.338Z,3.73
2022-12-05T06:25:01.354Z,3.68
2022-12-05T06:27:32.226Z,3.66
2022-12-05T06:30:00.597Z,3.71
2022-12-05T06:32:29.445Z,3.70
2022-12-05T06:34:57.390Z,3.46
2022-12-05T06:37:25.366Z,3.30
2022-12-05T06:39:53.334Z,3.20
2022-12-05T06:42:22.367Z,3.13
2022-12-05T06:44:51.707Z,3.06
2022-12-05T06:47:19.802Z,3.03
2022-12-05T06:49:47.825Z,3.02
2022-12-05T06:52:16.020Z,3.01
2022-12-05T06:54:44.002Z,2.98
2022-12-05T06:57:12.489Z,2.98
2022-12-05T06:59:40.478Z,2.98
2022-12-05T07:02:09.512Z,2.96
2022-12-05T07:04:37.718Z,2.95
2022-12-05T07:07:05.896Z,2.96
2022-12-05T07:09:48.162Z,2.96
2022-12-05T07:12:17.712Z,2.96
2022-12-05T07:14:48.221Z,2.96
2022-12-05T07:17:18.546Z,2.95
2022-12-05T07:19:48.968Z,2.96
2022-12-05T07:22:17.146Z,2.96
2022-12-05T07:24:45.580Z,2.95
2022-12-05T07:27:14.382Z,2.96
2022-12-05T07:29:42.508Z,2.96
2022-12-05T07:32:10.685Z,2.98
2022-12-05T07:34:40.160Z,2.96
2022-12-05T07:37:08.239Z,2.96
2022-12-05T07:39:36.528Z,2.95
2022-12-05T07:42:05.392Z,2.98
2022-12-05T07:44:33.879Z,2.95
2022-12-05T07:47:01.967Z,2.93
2022-12-05T07:49:30.150Z,2.93
2022-12-05T07:51:59.454Z,2.95
2022-12-05T07:54:27.484Z,2.95
2022-12-05T07:56:55.444Z,2.96
2022-12-05T07:59:23.386Z,2.95
2022-12-05T08:01:51.752Z,2.95
2022-12-05T08:04:19.964Z,2.98
2022-12-05T08:06:47.924Z,2.96
2022-12-05T08:09:17.304Z,2.98
2022-12-05T08:11:51.041Z,3.01
2022-12-05T08:14:20.589Z,2.99
2022-12-05T08:16:48.917Z,3.01
2022-12-05T08:19:17.786Z,2.99
2022-12-05T08:21:45.982Z,2.98
2022-12-05T08:24:14.385Z,2.99
2022-12-05T08:26:43.774Z,2.98
2022-12-05T08:29:13.690Z,3.01
2022-12-05T08:31:43.290Z,2.99
2022-12-05T08:34:12.859Z,2.99
2022-12-05T08:36:41.823Z,2.99
2022-12-05T08:39:14.251Z,3.01
2022-12-05T08:41:43.667Z,2.99
2022-12-05T08:44:17.217Z,3.02
2022-12-05T08:46:47.631Z,3.02
2022-12-05T08:49:16.881Z,3.03
2022-12-05T08:51:44.973Z,3.05
2022-12-05T08:54:13.412Z,3.06
2022-12-05T08:56:43.757Z,3.08
2022-12-05T08:59:11.984Z,3.06
2022-12-05T09:01:40.641Z,3.03
2022-12-05T09:04:09.458Z,3.05
2022-12-05T09:06:39.242Z,3.02
2022-12-05T09:09:09.438Z,3.05
2022-12-05T09:11:40.766Z,3.08
2022-12-05T09:14:10.075Z,3.05
2022-12-05T09:16:39.485Z,3.08
2022-12-05T09:19:12.556Z,3.05
2022-12-05T09:21:40.551Z,3.05
2022-12-05T09:24:08.768Z,3.06
2022-12-05T09:26:36.750Z,3.03
2022-12-05T09:29:04.881Z,3.02
2022-12-05T09:31:34.331Z,3.03
2022-12-05T09:34:02.584Z,3.03
2022-12-05T09:36:31.811Z,3.01
2022-12-05T09:39:02.013Z,3.02
2022-12-05T09:42:03.597Z,3.06
2022-12-05T09:44:47.037Z,3.05
2022-12-05T09:47:33.185Z,3.03
2022-12-05T09:50:04.107Z,3.03
2022-12-05T09:52:34.914Z,3.02
2022-12-05T09:55:05.016Z,3.05
2022-12-05T09:57:36.353Z,3.05
2022-12-05T10:00:06.917Z,3.06
2022-12-05T10:02:43.554Z,3.06
2022-12-05T10:05:15.779Z,3.08
2022-12-05T10:07:45.117Z,3.03
2022-12-05T10:10:25.608Z,3.06
2022-12-05T10:13:15.929Z,3.01
2022-12-05T10:15:47.723Z,3.01
2022-12-05T10:18:25.997Z,3.02
2022-12-05T10:20:58.042Z,3.05
2022-12-05T10:23:56.053Z,3.06
2022-12-05T10:26:17.729Z,3.09
2022-12-05T10:28:51.002Z,3.08
2022-12-05T10:31:22.492Z,3.08
2022-12-05T10:33:58.699Z,3.08
2022-12-05T10:36:26.817Z,3.06
2022-12-05T10:38:56.797Z,3.09
2022-12-05T10:41:25.038Z,3.10
2022-12-05T10:43:53.182Z,3.09
2022-12-05T10:46:21.315Z,3.08
2022-12-05T10:48:49.471Z,3.12
2022-12-05T10:51:22.239Z,3.15
2022-12-05T10:53:52.715Z,3.18
2022-12-05T10:56:44.210Z,3.16
2022-12-05T10:59:14.644Z,3.12
2022-12-05T11:01:48.935Z,3.10
2022-12-05T11:04:23.426Z,3.12
2022-12-05T11:06:57.773Z,3.13
2022-12-05T11:09:27.766Z,3.15
2022-12-05T11:12:02.704Z,3.16
2022-12-05T11:14:31.460Z,3.16
2022-12-05T11:17:01.830Z,3.18
2022-12-05T11:19:32.025Z,3.18
2022-12-05T11:22:01.936Z,3.22
2022-12-05T11:24:31.818Z,3.23
2022-12-05T11:27:01.326Z,3.23
2022-12-05T11:29:35.404Z,3.27
2022-12-05T11:32:04.175Z,3.30
2022-12-05T11:34:38.849Z,3.27
2022-12-05T11:37:13.979Z,3.34
2022-12-05T11:39:42.058Z,3.39
2022-12-05T11:42:24.156Z,3.37
2022-12-05T11:45:22.785Z,3.37
2022-12-05T11:48:05.575Z,3.37
2022-12-05T11:50:41.926Z,3.39
2022-12-05T11:53:28.715Z,3.43
2022-12-05T11:56:04.468Z,3.44
2022-12-05T11:58:43.830Z,3.46
2022-12-05T12:01:21.283Z,3.46
2022-12-05T12:04:05.260Z,3.40
2022-12-05T12:06:34.823Z,3.40
2022-12-05T12:09:22.085Z,3.40
2022-12-05T12:11:54.976Z,3.37
2022-12-05T12:14:29.703Z,3.41
2022-12-05T12:17:06.940Z,3.43
2022-12-05T12:19:54.734Z,3.44
2022-12-05T12:22:39.690Z,3.41
2022-12-05T12:25:25.741Z,3.43
2022-12-05T12:28:04.532Z,3.44
2022-12-05T12:30:43.199Z,3.43
2022-12-05T12:33:16.356Z,3.43
2022-12-05T12:35:48.621Z,3.44
2022-12-05T12:38:27.153Z,3.43
2022-12-05T12:40:58.212Z,3.43
2022-12-05T12:43:54.500Z,3.44
2022-12-05T12:46:34.369Z,3.43
2022-12-05T12:49:12.243Z,3.44
2022-12-05T12:51:45.729Z,3.47
2022-12-05T12:54:40.353Z,3.46
2022-12-05T12:57:23.594Z,3.49
2022-12-05T13:00:03.171Z,3.47
2022-12-05T13:02:37.148Z,3.51
2022-12-05T13:05:09.692Z,3.51
2022-12-05T13:07:42.975Z,3.47
2022-12-05T13:10:15.397Z,3.50
2022-12-05T13:12:44.610Z,3.47
2022-12-05T13:15:15.518Z,3.51
2022-12-05T13:17:45.314Z,3.53
2022-12-05T13:20:16.351Z,3.54
2022-12-05T13:22:45.149Z,3.57
2022-12-05T13:25:15.605Z,3.56
2022-12-05T13:27:54.906Z,3.59
2022-12-05T13:30:23.441Z,3.59
2022-12-05T13:32:56.804Z,3.60
2022-12-05T13:35:47.987Z,3.60
2022-12-05T13:38:39.375Z,3.60
2022-12-05T13:41:24.938Z,3.61
2022-12-05T13:44:05.806Z,3.63
2022-12-05T13:46:36.199Z,3.61
2022-12-05T13:49:07.184Z,3.66
2022-12-05T13:51:38.377Z,3.66
2022-12-05T13:54:12.396Z,3.68
2022-12-05T13:56:52.658Z,3.67
2022-12-05T14:00:04.883Z,3.67
2022-12-05T14:02:53.353Z,3.66
2022-12-05T14:05:38.259Z,3.66
2022-12-05T14:08:48.246Z,3.66
2022-12-05T14:11:16.439Z,3.67
2022-12-05T14:13:45.419Z,3.66
2022-12-05T14:16:48.373Z,3.66
2022-12-05T14:19:37.230Z,3.67
2022-12-05T14:22:17.385Z,3.70
2022-12-05T14:24:53.046Z,3.68
2022-12-05T14:27:27.252Z,3.70
2022-12-05T14:30:01.413Z,3.70
2022-12-05T14:32:32.611Z,3.71
2022-12-05T14:35:05.950Z,3.73
2022-12-05T14:37:35.907Z,3.75
2022-12-05T14:40:05.950Z,3.74
2022-12-05T14:42:38.217Z,3.77
2022-12-05T14:45:22.552Z,3.77
2022-12-05T14:47:54.141Z,3.75
2022-12-05T14:50:24.957Z,3.77
2022-12-05T14:53:15.427Z,3.77
2022-12-05T14:55:44.182Z,3.75
2022-12-05T14:58:17.946Z,3.77
2022-12-05T15:00:48.298Z,3.78
2022-12-05T15:03:24.328Z,3.77
2022-12-05T15:05:52.428Z,3.78
2022-12-05T15:08:21.418Z,3.78
2022-12-05T15:10:52.641Z,3.78
2022-12-05T15:13:24.578Z,3.78
2022-12-05T15:15:56.653Z,3.78
2022-12-05T15:18:29.558Z,3.78
2022-12-05T15:20:59.760Z,3.78
2022-12-05T15:23:50.362Z,3.80
2022-12-05T15:29:13.869Z,3.80
2022-12-05T15:31:46.426Z,3.80
2022-12-05T15:34:19.249Z,3.84
2022-12-05T15:36:51.841Z,3.81
2022-12-05T15:39:23.892Z,3.81
2022-12-05T15:41:52.648Z,3.82
2022-12-05T15:44:26.719Z,3.84
2022-12-05T15:47:01.287Z,3.84
2022-12-05T15:49:30.835Z,3.84
2022-12-05T15:52:06.892Z,3.81
2022-12-05T15:54:36.752Z,3.84
2022-12-05T15:57:07.091Z,3.85
2022-12-05T15:59:40.592Z,3.85
2022-12-05T16:02:14.355Z,3.85
2022-12-05T16:04:47.289Z,3.85
2022-12-05T16:07:15.982Z,3.87
2022-12-05T16:09:45.881Z,3.87
2022-12-05T16:12:25.311Z,3.87
2022-12-05T16:15:00.029Z,3.87
2022-12-05T16:17:30.325Z,3.85
2022-12-05T16:20:13.644Z,3.85
2022-12-05T16:22:45.026Z,3.87
2022-12-05T16:25:15.734Z,3.87
2022-12-05T16:27:46.315Z,3.85
2022-12-05T16:30:22.221Z,3.84
2022-12-05T16:33:00.783Z,3.88
2022-12-05T16:35:32.978Z,3.87
2022-12-05T16:38:11.774Z,3.85
2022-12-05T16:40:41.049Z,3.88
2022-12-05T16:43:20.860Z,3.88
2022-12-05T16:45:49.985Z,3.89
2022-12-05T16:48:23.515Z,3.89
2022-12-05T16:50:54.165Z,3.91
2022-12-05T16:53:29.072Z,3.91
2022-12-05T16:55:58.189Z,3.88
2022-12-05T16:58:29.740Z,3.89
2022-12-05T17:01:02.516Z,3.89
2022-12-05T17:03:35.405Z,3.89
2022-12-05T17:06:05.605Z,3.91
2022-12-05T17:08:34.262Z,3.88
2022-12-05T17:11:03.722Z,3.88
2022-12-05T17:13:32.586Z,3.85
2022-12-05T17:16:00.647Z,3.88
2022-12-05T17:18:39.670Z,3.87
2022-12-05T17:21:13.373Z,3.88
2022-12-05T17:23:44.556Z,3.84
2022-12-05T17:26:17.069Z,3.85
2022-12-05T17:28:45.317Z,3.87
2022-12-05T17:31:14.727Z,3.84
2022-12-05T17:33:43.871Z,3.85
2022-12-05T17:36:13.588Z,3.85
2022-12-05T17:38:41.875Z,3.87
2022-12-05T17:41:15.817Z,3.84
2022-12-05T17:43:47.783Z,3.88
2022-12-05T17:46:17.747Z,3.87
2022-12-05T17:48:45.911Z,3.88
2022-12-05T17:51:15.585Z,3.84
2022-12-05T17:53:45.431Z,3.84
2022-12-05T17:56:13.935Z,3.81
2022-12-05T17:58:42.313Z,3.84
2022-12-05T18:01:14.291Z,3.85
2022-12-05T18:03:42.593Z,3.87
2022-12-05T18:06:11.008Z,3.88
2022-12-05T18:08:42.069Z,3.87
2022-12-05T18:11:10.424Z,3.82
2022-12-05T18:13:38.639Z,3.78
2022-12-05T18:16:07.720Z,3.77
2022-12-05T18:18:36.032Z,3.74
2022-12-05T18:21:05.693Z,3.71
2022-12-05T18:23:33.967Z,3.70
2022-12-05T18:26:03.375Z,3.68
2022-12-05T18:28:32.846Z,3.66
2022-12-05T18:31:05.416Z,3.63
2022-12-05T18:33:33.691Z,3.61
2022-12-05T18:36:05.691Z,3.59
2022-12-05T18:38:33.764Z,3.54
2022-12-05T18:41:04.194Z,3.49
2022-12-05T18:43:32.890Z,3.50
2022-12-05T18:46:03.034Z,3.46
2022-12-05T18:48:39.471Z,3.44
2022-12-05T18:51:11.117Z,3.43
2022-12-05T18:53:39.404Z,3.41
2022-12-05T18:56:22.265Z,3.41
2022-12-05T18:58:54.408Z,3.41
2022-12-05T19:01:22.517Z,3.37
2022-12-05T19:03:51.256Z,3.36
2022-12-05T19:06:20.812Z,3.37
2022-12-05T19:08:48.944Z,3.36
2022-12-05T19:11:20.106Z,3.33
2022-12-05T19:13:48.347Z,3.31
2022-12-05T19:16:18.481Z,3.30
2022-12-05T19:18:47.160Z,3.29
2022-12-05T19:21:15.150Z,3.26
2022-12-05T19:23:43.209Z,3.27
2022-12-05T19:26:11.368Z,3.22
2022-12-05T19:28:40.786Z,3.18
2022-12-05T19:31:10.018Z,3.13
2022-12-05T19:33:40.367Z,3.12
2022-12-05T19:36:11.511Z,3.10
2022-12-05T19:38:40.940Z,3.12
2022-12-05T19:41:10.042Z,3.13
2022-12-05T19:43:40.186Z,3.10
2022-12-05T19:46:09.383Z,3.06
2022-12-05T19:48:37.607Z,3.05
2022-12-05T19:51:06.021Z,3.06
2022-12-05T19:53:36.158Z,3.05
2022-12-05T19:56:05.528Z,3.03
2022-12-05T19:58:34.114Z,3.02
2022-12-05T20:01:09.635Z,3.05
2022-12-05T20:03:37.669Z,3.10
2022-12-05T20:06:06.575Z,3.09
2022-12-05T20:08:35.412Z,3.06
2022-12-05T20:11:07.454Z,2.99
2022-12-05T20:13:51.837Z,2.95
2022-12-05T20:16:22.740Z,2.92
2022-12-05T20:18:51.255Z,2.89
2022-12-05T20:21:21.971Z,2.93
2022-12-05T20:23:50.083Z,2.91
2022-12-05T20:26:20.661Z,2.88
2022-12-05T20:28:49.223Z,2.88
2022-12-05T20:31:19.900Z,2.85
2022-12-05T20:33:50.560Z,2.87
2022-12-05T20:36:20.320Z,2.80
2022-12-05T20:38:48.373Z,2.81
2022-12-05T20:41:18.018Z,2.82
2022-12-05T20:43:47.287Z,2.81
2022-12-05T20:46:17.975Z,2.78
2022-12-05T20:48:47.578Z,2.78
2022-12-05T20:51:18.339Z,2.77
2022-12-05T20:53:46.708Z,2.78
2022-12-05T20:56:16.452Z,2.75
2022-12-05T20:58:45.531Z,2.78
2022-12-05T21:01:15.174Z,2.77
2022-12-05T21:03:44.909Z,2.75
2022-12-05T21:06:14.848Z,2.77
2022-12-05T21:08:44.686Z,2.75
2022-12-05T21:11:13.616Z,2.72
2022-12-05T21:13:41.881Z,2.74
2022-12-05T21:16:13.721Z,2.75
2022-12-05T21:18:42.017Z,2.75
2022-12-05T21:21:14.534Z,2.72
2022-12-05T21:23:44.664Z,2.70
2022-12-05T21:26:31.795Z,2.65
2022-12-05T21:29:01.534Z,2.62
2022-12-05T21:31:31.339Z,2.61
2022-12-05T21:34:00.793Z,2.61
2022-12-05T21:36:30.512Z,2.64
2022-12-05T21:39:00.337Z,2.62
2022-12-05T21:41:28.465Z,2.62
2022-12-05T21:43:56.456Z,2.62
2022-12-05T21:46:25.059Z,2.62
2022-12-05T21:48:53.863Z,2.61
2022-12-05T21:51:22.300Z,2.64
2022-12-05T21:53:50.893Z,2.61
2022-12-05T21:56:22.714Z,2.64
2022-12-05T21:58:50.938Z,2.66
2022-12-05T22:01:20.802Z,2.66
2022-12-05T22:03:51.498Z,2.66
2022-12-05T22:06:19.507Z,2.70
2022-12-05T22:08:48.510Z,2.66
2022-12-05T22:11:18.095Z,2.66
2022-12-05T22:13:48.846Z,2.65
2022-12-05T22:16:18.020Z,2.62
2022-12-05T22:18:46.562Z,2.64
2022-12-05T22:21:15.963Z,2.62
2022-12-05T22:23:44.527Z,2.60
2022-12-05T22:26:14.250Z,2.60
2022-12-05T22:28:42.613Z,2.61
2022-12-05T22:31:13.940Z,2.61
2022-12-05T22:33:42.370Z,2.60
2022-12-05T22:36:12.107Z,2.61
2022-12-05T22:38:41.430Z,2.62
2022-12-05T22:41:14.053Z,2.60
2022-12-05T22:43:43.201Z,2.54
2022-12-05T22:46:14.953Z,2.57
2022-12-05T22:48:44.923Z,2.54
2022-12-05T22:51:13.613Z,2.54
2022-12-05T22:53:41.675Z,2.57
2022-12-05T22:56:11.666Z,2.54
2022-12-05T22:58:40.469Z,2.51
2022-12-05T23:01:14.803Z,2.52
2022-12-05T23:03:43.797Z,2.51
2022-12-05T23:06:13.216Z,2.50
2022-12-05T23:08:42.859Z,2.51
2022-12-05T23:11:11.731Z,2.52
2022-12-05T23:13:40.337Z,2.52
2022-12-05T23:16:09.637Z,2.51
2022-12-05T23:18:47.522Z,2.52
2022-12-05T23:21:17.200Z,2.51
2022-12-05T23:23:45.638Z,2.54
2022-12-05T23:26:14.035Z,2.51
2022-12-05T23:28:42.249Z,2.47
2022-12-05T23:31:12.241Z,2.47
2022-12-05T23:33:42.773Z,2.45
2022-12-05T23:36:11.487Z,2.45
2022-12-05T23:38:40.743Z,2.45
2022-12-05T23:41:12.108Z,2.45
2022-12-05T23:43:40.096Z,2.44
2022-12-05T23:46:08.565Z,2.45
2022-12-05T23:48:36.661Z,2.44
2022-12-05T23:51:08.837Z,2.43
2022-12-05T23:53:37.076Z,2.45
2022-12-05T23:56:08.952Z,2.43
2022-12-05T23:58:37.108Z,2.40
